sensor_id;sensor_type;location;lat;lon;timestamp;temperature;humidity
24636;DHT22;12772;49.794;10.024;2022-07-12T00:02:42;18.90;45.50
24636;DHT22;12772;49.794;10.024;2022-07-12T00:06:45;19.00;45.80
24636;DHT22;12772;49.794;10.024;2022-07-12T00:10:47;19.00;46.00
24636;DHT22;12772;49.794;10.024;2022-07-12T00:14:49;18.90;46.20
24636;DHT22;12772;49.794;10.024;2022-07-12T00:18:51;18.90;46.70
24636;DHT22;12772;49.794;10.024;2022-07-12T00:22:54;18.90;47.00
24636;DHT22;12772;49.794;10.024;2022-07-12T00:26:56;18.90;47.00
24636;DHT22;12772;49.794;10.024;2022-07-12T00:30:59;19.00;47.10
24636;DHT22;12772;49.794;10.024;2022-07-12T00:35:02;19.00;47.10
24636;DHT22;12772;49.794;10.024;2022-07-12T00:39:04;19.10;47.20
24636;DHT22;12772;49.794;10.024;2022-07-12T00:43:06;19.10;47.20
24636;DHT22;12772;49.794;10.024;2022-07-12T00:47:28;19.10;47.20
24636;DHT22;12772;49.794;10.024;2022-07-12T00:51:30;19.10;47.20
24636;DHT22;12772;49.794;10.024;2022-07-12T00:55:32;19.10;47.00
24636;DHT22;12772;49.794;10.024;2022-07-12T00:59:34;19.10;46.80
24636;DHT22;12772;49.794;10.024;2022-07-12T01:03:36;19.20;46.70
24636;DHT22;12772;49.794;10.024;2022-07-12T01:07:39;19.10;46.50
24636;DHT22;12772;49.794;10.024;2022-07-12T01:11:42;19.10;46.60
24636;DHT22;12772;49.794;10.024;2022-07-12T01:15:46;19.10;46.80
24636;DHT22;12772;49.794;10.024;2022-07-12T01:19:49;19.10;46.80
24636;DHT22;12772;49.794;10.024;2022-07-12T01:23:52;19.10;46.80
24636;DHT22;12772;49.794;10.024;2022-07-12T01:27:54;19.10;46.80
24636;DHT22;12772;49.794;10.024;2022-07-12T01:31:59;19.00;46.70
24636;DHT22;12772;49.794;10.024;2022-07-12T01:36:21;19.00;46.60
24636;DHT22;12772;49.794;10.024;2022-07-12T01:40:23;19.00;46.60
24636;DHT22;12772;49.794;10.024;2022-07-12T01:44:25;19.00;46.50
24636;DHT22;12772;49.794;10.024;2022-07-12T01:48:28;18.90;46.60
24636;DHT22;12772;49.794;10.024;2022-07-12T01:52:30;18.90;46.60
24636;DHT22;12772;49.794;10.024;2022-07-12T01:56:32;18.90;46.80
24636;DHT22;12772;49.794;10.024;2022-07-12T02:00:35;18.70;46.70
24636;DHT22;12772;49.794;10.024;2022-07-12T02:04:37;18.60;47.30
24636;DHT22;12772;49.794;10.024;2022-07-12T02:08:42;18.60;46.60
24636;DHT22;12772;49.794;10.024;2022-07-12T02:12:44;18.60;46.60
24636;DHT22;12772;49.794;10.024;2022-07-12T02:16:47;18.50;46.60
24636;DHT22;12772;49.794;10.024;2022-07-12T02:20:49;18.40;46.40
24636;DHT22;12772;49.794;10.024;2022-07-12T02:24:51;18.40;46.40
24636;DHT22;12772;49.794;10.024;2022-07-12T02:28:53;18.30;46.30
24636;DHT22;12772;49.794;10.024;2022-07-12T02:32:55;18.30;46.30
24636;DHT22;12772;49.794;10.024;2022-07-12T02:36:57;18.20;46.40
24636;DHT22;12772;49.794;10.024;2022-07-12T02:40:59;18.20;46.60
24636;DHT22;12772;49.794;10.024;2022-07-12T02:45:02;18.10;46.60
24636;DHT22;12772;49.794;10.024;2022-07-12T02:49:04;18.10;46.60
24636;DHT22;12772;49.794;10.024;2022-07-12T02:53:07;18.10;46.80
24636;DHT22;12772;49.794;10.024;2022-07-12T02:57:09;18.10;46.80
24636;DHT22;12772;49.794;10.024;2022-07-12T03:01:11;18.00;46.90
24636;DHT22;12772;49.794;10.024;2022-07-12T03:05:15;17.90;47.00
24636;DHT22;12772;49.794;10.024;2022-07-12T03:09:17;17.80;46.90
24636;DHT22;12772;49.794;10.024;2022-07-12T03:13:19;17.80;47.00
24636;DHT22;12772;49.794;10.024;2022-07-12T03:17:21;17.70;47.00
24636;DHT22;12772;49.794;10.024;2022-07-12T03:21:24;17.70;47.20
24636;DHT22;12772;49.794;10.024;2022-07-12T03:25:26;17.60;47.30
24636;DHT22;12772;49.794;10.024;2022-07-12T03:29:28;17.50;47.10
24636;DHT22;12772;49.794;10.024;2022-07-12T03:33:30;17.50;47.20
24636;DHT22;12772;49.794;10.024;2022-07-12T03:37:47;17.50;47.20
24636;DHT22;12772;49.794;10.024;2022-07-12T03:41:50;17.40;46.90
24636;DHT22;12772;49.794;10.024;2022-07-12T03:45:52;17.40;46.90
24636;DHT22;12772;49.794;10.024;2022-07-12T03:49:56;17.40;46.90
24636;DHT22;12772;49.794;10.024;2022-07-12T03:53:58;17.40;46.80
24636;DHT22;12772;49.794;10.024;2022-07-12T03:58:00;17.30;47.30
24636;DHT22;12772;49.794;10.024;2022-07-12T04:02:02;17.20;47.40
24636;DHT22;12772;49.794;10.024;2022-07-12T04:06:04;17.10;46.90
24636;DHT22;12772;49.794;10.024;2022-07-12T04:10:07;17.10;47.10
24636;DHT22;12772;49.794;10.024;2022-07-12T04:14:09;17.00;47.10
24636;DHT22;12772;49.794;10.024;2022-07-12T04:18:11;16.90;47.40
24636;DHT22;12772;49.794;10.024;2022-07-12T04:22:13;16.90;47.70
24636;DHT22;12772;49.794;10.024;2022-07-12T04:26:15;16.90;48.10
24636;DHT22;12772;49.794;10.024;2022-07-12T04:30:17;16.90;48.50
24636;DHT22;12772;49.794;10.024;2022-07-12T04:34:19;17.00;48.80
24636;DHT22;12772;49.794;10.024;2022-07-12T04:38:21;17.00;48.80
24636;DHT22;12772;49.794;10.024;2022-07-12T04:42:23;17.10;48.90
24636;DHT22;12772;49.794;10.024;2022-07-12T04:46:28;17.10;48.80
24636;DHT22;12772;49.794;10.024;2022-07-12T04:50:39;17.20;49.00
24636;DHT22;12772;49.794;10.024;2022-07-12T04:54:41;17.30;49.00
24636;DHT22;12772;49.794;10.024;2022-07-12T04:58:43;17.30;49.00
24636;DHT22;12772;49.794;10.024;2022-07-12T05:02:45;17.40;48.80
24636;DHT22;12772;49.794;10.024;2022-07-12T05:06:48;17.50;48.80
24636;DHT22;12772;49.794;10.024;2022-07-12T05:10:50;17.60;48.80
24636;DHT22;12772;49.794;10.024;2022-07-12T05:14:52;17.60;48.80
24636;DHT22;12772;49.794;10.024;2022-07-12T05:18:54;17.60;48.60
24636;DHT22;12772;49.794;10.024;2022-07-12T05:22:57;17.70;48.90
24636;DHT22;12772;49.794;10.024;2022-07-12T05:26:59;17.70;49.10
24636;DHT22;12772;49.794;10.024;2022-07-12T05:31:01;17.80;49.20
24636;DHT22;12772;49.794;10.024;2022-07-12T05:35:03;17.80;49.40
24636;DHT22;12772;49.794;10.024;2022-07-12T05:39:05;17.90;50.30
24636;DHT22;12772;49.794;10.024;2022-07-12T05:43:07;17.90;50.60
24636;DHT22;12772;49.794;10.024;2022-07-12T05:47:09;18.00;51.60
24636;DHT22;12772;49.794;10.024;2022-07-12T05:51:11;18.10;51.20
24636;DHT22;12772;49.794;10.024;2022-07-12T05:55:31;18.20;51.00
24636;DHT22;12772;49.794;10.024;2022-07-12T05:59:35;18.30;51.20
24636;DHT22;12772;49.794;10.024;2022-07-12T06:03:37;18.40;51.20
24636;DHT22;12772;49.794;10.024;2022-07-12T06:07:39;18.40;52.00
24636;DHT22;12772;49.794;10.024;2022-07-12T06:11:41;18.50;52.40
24636;DHT22;12772;49.794;10.024;2022-07-12T06:15:43;18.60;52.60
24636;DHT22;12772;49.794;10.024;2022-07-12T06:19:45;18.70;52.10
24636;DHT22;12772;49.794;10.024;2022-07-12T06:23:47;18.90;52.50
24636;DHT22;12772;49.794;10.024;2022-07-12T06:27:50;19.20;52.40
24636;DHT22;12772;49.794;10.024;2022-07-12T06:31:52;19.40;52.10
24636;DHT22;12772;49.794;10.024;2022-07-12T06:35:54;19.60;52.20
24636;DHT22;12772;49.794;10.024;2022-07-12T06:39:56;19.70;51.70
24636;DHT22;12772;49.794;10.024;2022-07-12T06:43:58;20.00;51.30
24636;DHT22;12772;49.794;10.024;2022-07-12T06:48:00;20.20;51.10
24636;DHT22;12772;49.794;10.024;2022-07-12T06:52:03;20.40;50.70
24636;DHT22;12772;49.794;10.024;2022-07-12T06:56:05;20.50;50.40
24636;DHT22;12772;49.794;10.024;2022-07-12T07:00:07;20.70;50.30
24636;DHT22;12772;49.794;10.024;2022-07-12T07:04:10;20.80;50.10
24636;DHT22;12772;49.794;10.024;2022-07-12T07:08:12;21.00;49.50
24636;DHT22;12772;49.794;10.024;2022-07-12T07:12:14;21.10;49.40
24636;DHT22;12772;49.794;10.024;2022-07-12T07:16:16;21.20;48.90
24636;DHT22;12772;49.794;10.024;2022-07-12T07:20:20;21.40;48.60
24636;DHT22;12772;49.794;10.024;2022-07-12T07:24:23;21.60;48.40
24636;DHT22;12772;49.794;10.024;2022-07-12T07:28:25;21.70;47.60
24636;DHT22;12772;49.794;10.024;2022-07-12T07:32:27;21.90;46.40
24636;DHT22;12772;49.794;10.024;2022-07-12T07:36:29;21.90;45.60
24636;DHT22;12772;49.794;10.024;2022-07-12T07:40:31;21.90;45.20
24636;DHT22;12772;49.794;10.024;2022-07-12T07:44:33;22.00;45.40
24636;DHT22;12772;49.794;10.024;2022-07-12T07:48:35;22.00;45.60
24636;DHT22;12772;49.794;10.024;2022-07-12T07:52:37;22.20;45.40
24636;DHT22;12772;49.794;10.024;2022-07-12T07:56:39;22.40;45.20
24636;DHT22;12772;49.794;10.024;2022-07-12T08:00:41;22.50;44.60
24636;DHT22;12772;49.794;10.024;2022-07-12T08:04:43;22.70;44.30
24636;DHT22;12772;49.794;10.024;2022-07-12T08:08:45;22.80;44.40
24636;DHT22;12772;49.794;10.024;2022-07-12T08:12:47;23.00;43.80
24636;DHT22;12772;49.794;10.024;2022-07-12T08:16:49;23.20;43.50
24636;DHT22;12772;49.794;10.024;2022-07-12T08:20:51;23.40;43.00
24636;DHT22;12772;49.794;10.024;2022-07-12T08:24:54;23.60;42.10
24636;DHT22;12772;49.794;10.024;2022-07-12T08:28:56;23.80;41.20
24636;DHT22;12772;49.794;10.024;2022-07-12T08:33:00;23.90;40.30
24636;DHT22;12772;49.794;10.024;2022-07-12T08:37:03;23.90;40.70
24636;DHT22;12772;49.794;10.024;2022-07-12T08:41:05;24.00;39.80
24636;DHT22;12772;49.794;10.024;2022-07-12T08:45:08;24.10;38.70
24636;DHT22;12772;49.794;10.024;2022-07-12T08:49:11;24.20;38.90
24636;DHT22;12772;49.794;10.024;2022-07-12T08:53:13;24.20;38.90
24636;DHT22;12772;49.794;10.024;2022-07-12T08:57:28;24.30;38.90
24636;DHT22;12772;49.794;10.024;2022-07-12T09:05:52;24.60;37.30
24636;DHT22;12772;49.794;10.024;2022-07-12T09:10:03;24.90;36.20
24636;DHT22;12772;49.794;10.024;2022-07-12T09:14:06;25.10;34.00
24636;DHT22;12772;49.794;10.024;2022-07-12T09:18:09;25.10;32.50
24636;DHT22;12772;49.794;10.024;2022-07-12T09:22:16;25.00;33.50
24636;DHT22;12772;49.794;10.024;2022-07-12T09:26:18;25.00;34.10
24636;DHT22;12772;49.794;10.024;2022-07-12T09:30:23;25.00;34.00
24636;DHT22;12772;49.794;10.024;2022-07-12T09:34:25;25.00;33.60
24636;DHT22;12772;49.794;10.024;2022-07-12T09:38:51;25.00;32.40
24636;DHT22;12772;49.794;10.024;2022-07-12T09:42:54;25.00;32.40
24636;DHT22;12772;49.794;10.024;2022-07-12T09:46:58;25.30;32.70
24636;DHT22;12772;49.794;10.024;2022-07-12T09:51:02;25.40;32.00
24636;DHT22;12772;49.794;10.024;2022-07-12T09:55:07;25.50;32.30
24636;DHT22;12772;49.794;10.024;2022-07-12T09:59:13;25.80;30.90
24636;DHT22;12772;49.794;10.024;2022-07-12T10:03:15;26.00;29.90
24636;DHT22;12772;49.794;10.024;2022-07-12T10:07:19;26.20;29.60
24636;DHT22;12772;49.794;10.024;2022-07-12T10:11:22;26.30;30.00
24636;DHT22;12772;49.794;10.024;2022-07-12T10:15:26;26.50;29.80
24636;DHT22;12772;49.794;10.024;2022-07-12T10:19:31;26.70;28.30
24636;DHT22;12772;49.794;10.024;2022-07-12T10:23:36;26.90;28.60
24636;DHT22;12772;49.794;10.024;2022-07-12T10:27:39;27.10;28.60
24636;DHT22;12772;49.794;10.024;2022-07-12T10:31:41;27.30;27.70
24636;DHT22;12772;49.794;10.024;2022-07-12T10:36:03;27.40;27.00
24636;DHT22;12772;49.794;10.024;2022-07-12T10:40:17;27.40;27.80
24636;DHT22;12772;49.794;10.024;2022-07-12T10:44:44;27.60;27.90
24636;DHT22;12772;49.794;10.024;2022-07-12T10:48:46;27.80;27.40
24636;DHT22;12772;49.794;10.024;2022-07-12T10:57:42;28.10;26.40
24636;DHT22;12772;49.794;10.024;2022-07-12T11:01:46;28.20;26.70
24636;DHT22;12772;49.794;10.024;2022-07-12T11:05:49;28.30;26.50
24636;DHT22;12772;49.794;10.024;2022-07-12T11:09:52;28.20;26.00
24636;DHT22;12772;49.794;10.024;2022-07-12T11:13:55;28.10;26.00
24636;DHT22;12772;49.794;10.024;2022-07-12T11:17:58;28.00;26.20
24636;DHT22;12772;49.794;10.024;2022-07-12T11:22:00;28.10;26.40
24636;DHT22;12772;49.794;10.024;2022-07-12T11:26:03;28.30;26.40
24636;DHT22;12772;49.794;10.024;2022-07-12T11:30:06;28.30;25.80
24636;DHT22;12772;49.794;10.024;2022-07-12T11:34:22;28.40;25.90
24636;DHT22;12772;49.794;10.024;2022-07-12T11:38:25;28.50;25.90
24636;DHT22;12772;49.794;10.024;2022-07-12T11:42:27;28.70;25.10
24636;DHT22;12772;49.794;10.024;2022-07-12T11:46:29;28.60;25.20
24636;DHT22;12772;49.794;10.024;2022-07-12T11:50:32;28.70;25.40
24636;DHT22;12772;49.794;10.024;2022-07-12T11:54:35;28.80;24.60
24636;DHT22;12772;49.794;10.024;2022-07-12T11:58:37;28.90;24.90
24636;DHT22;12772;49.794;10.024;2022-07-12T12:02:39;28.90;24.10
24636;DHT22;12772;49.794;10.024;2022-07-12T12:06:41;28.90;24.90
24636;DHT22;12772;49.794;10.024;2022-07-12T12:10:53;29.10;25.30
24636;DHT22;12772;49.794;10.024;2022-07-12T12:14:55;29.40;25.00
24636;DHT22;12772;49.794;10.024;2022-07-12T12:19:00;29.70;23.90
24636;DHT22;12772;49.794;10.024;2022-07-12T12:23:15;29.80;23.80
24636;DHT22;12772;49.794;10.024;2022-07-12T12:27:23;29.90;23.60
24636;DHT22;12772;49.794;10.024;2022-07-12T12:31:26;30.10;23.70
24636;DHT22;12772;49.794;10.024;2022-07-12T12:35:36;30.10;23.70
24636;DHT22;12772;49.794;10.024;2022-07-12T12:39:39;30.20;23.80
24636;DHT22;12772;49.794;10.024;2022-07-12T12:43:41;30.20;23.80
24636;DHT22;12772;49.794;10.024;2022-07-12T12:48:00;30.40;23.90
24636;DHT22;12772;49.794;10.024;2022-07-12T12:52:04;30.50;23.40
24636;DHT22;12772;49.794;10.024;2022-07-12T12:56:08;30.50;23.10
24636;DHT22;12772;49.794;10.024;2022-07-12T13:00:11;30.50;23.20
24636;DHT22;12772;49.794;10.024;2022-07-12T13:04:14;30.60;23.40
24636;DHT22;12772;49.794;10.024;2022-07-12T13:08:16;30.70;23.10
24636;DHT22;12772;49.794;10.024;2022-07-12T13:12:18;30.80;23.10
24636;DHT22;12772;49.794;10.024;2022-07-12T13:16:20;30.80;23.30
24636;DHT22;12772;49.794;10.024;2022-07-12T13:20:24;30.90;22.70
24636;DHT22;12772;49.794;10.024;2022-07-12T13:24:26;30.80;22.50
24636;DHT22;12772;49.794;10.024;2022-07-12T13:28:28;30.80;22.50
24636;DHT22;12772;49.794;10.024;2022-07-12T13:32:35;30.90;22.80
24636;DHT22;12772;49.794;10.024;2022-07-12T13:36:38;30.90;22.40
24636;DHT22;12772;49.794;10.024;2022-07-12T13:40:40;31.00;22.50
24636;DHT22;12772;49.794;10.024;2022-07-12T13:44:42;31.10;22.50
24636;DHT22;12772;49.794;10.024;2022-07-12T13:48:44;31.30;22.10
24636;DHT22;12772;49.794;10.024;2022-07-12T13:52:48;31.30;21.30
24636;DHT22;12772;49.794;10.024;2022-07-12T13:56:50;31.30;21.70
24636;DHT22;12772;49.794;10.024;2022-07-12T14:00:52;31.30;21.60
24636;DHT22;12772;49.794;10.024;2022-07-12T14:04:55;31.30;21.30
24636;DHT22;12772;49.794;10.024;2022-07-12T14:08:57;31.30;21.80
24636;DHT22;12772;49.794;10.024;2022-07-12T14:13:02;31.40;21.60
24636;DHT22;12772;49.794;10.024;2022-07-12T14:17:04;31.40;21.50
24636;DHT22;12772;49.794;10.024;2022-07-12T14:21:06;31.40;21.30
24636;DHT22;12772;49.794;10.024;2022-07-12T14:25:09;31.50;20.90
24636;DHT22;12772;49.794;10.024;2022-07-12T14:29:11;31.40;21.00
24636;DHT22;12772;49.794;10.024;2022-07-12T14:33:13;31.30;21.20
24636;DHT22;12772;49.794;10.024;2022-07-12T14:37:15;31.30;20.80
24636;DHT22;12772;49.794;10.024;2022-07-12T14:41:17;31.20;21.20
24636;DHT22;12772;49.794;10.024;2022-07-12T14:45:19;31.10;20.70
24636;DHT22;12772;49.794;10.024;2022-07-12T14:49:23;31.10;20.80
24636;DHT22;12772;49.794;10.024;2022-07-12T14:53:25;31.30;20.70
24636;DHT22;12772;49.794;10.024;2022-07-12T14:57:27;31.30;21.00
24636;DHT22;12772;49.794;10.024;2022-07-12T15:01:29;31.40;20.10
24636;DHT22;12772;49.794;10.024;2022-07-12T15:05:31;31.40;20.30
24636;DHT22;12772;49.794;10.024;2022-07-12T15:09:33;31.40;20.40
24636;DHT22;12772;49.794;10.024;2022-07-12T15:13:36;31.40;20.30
24636;DHT22;12772;49.794;10.024;2022-07-12T15:17:39;31.30;20.00
24636;DHT22;12772;49.794;10.024;2022-07-12T15:21:41;31.30;20.30
24636;DHT22;12772;49.794;10.024;2022-07-12T15:25:43;31.30;20.00
24636;DHT22;12772;49.794;10.024;2022-07-12T15:29:45;31.30;20.20
24636;DHT22;12772;49.794;10.024;2022-07-12T15:33:48;31.30;20.60
24636;DHT22;12772;49.794;10.024;2022-07-12T15:37:51;31.20;20.00
24636;DHT22;12772;49.794;10.024;2022-07-12T15:41:53;31.20;20.00
24636;DHT22;12772;49.794;10.024;2022-07-12T15:45:55;31.20;19.60
24636;DHT22;12772;49.794;10.024;2022-07-12T15:49:57;31.10;20.10
24636;DHT22;12772;49.794;10.024;2022-07-12T15:53:59;31.10;18.40
24636;DHT22;12772;49.794;10.024;2022-07-12T15:58:01;31.20;18.40
24636;DHT22;12772;49.794;10.024;2022-07-12T16:02:03;31.30;18.40
24636;DHT22;12772;49.794;10.024;2022-07-12T16:06:05;31.30;18.50
24636;DHT22;12772;49.794;10.024;2022-07-12T16:10:08;31.30;18.50
24636;DHT22;12772;49.794;10.024;2022-07-12T16:14:10;31.30;18.50
24636;DHT22;12772;49.794;10.024;2022-07-12T16:18:12;31.30;18.40
24636;DHT22;12772;49.794;10.024;2022-07-12T16:22:14;31.30;18.50
24636;DHT22;12772;49.794;10.024;2022-07-12T16:26:17;31.30;18.50
24636;DHT22;12772;49.794;10.024;2022-07-12T16:30:23;31.20;18.40
24636;DHT22;12772;49.794;10.024;2022-07-12T16:34:25;31.20;18.40
24636;DHT22;12772;49.794;10.024;2022-07-12T16:38:27;31.10;18.90
24636;DHT22;12772;49.794;10.024;2022-07-12T16:42:30;31.10;18.30
24636;DHT22;12772;49.794;10.024;2022-07-12T16:46:32;31.10;17.80
24636;DHT22;12772;49.794;10.024;2022-07-12T16:50:34;31.00;17.10
24636;DHT22;12772;49.794;10.024;2022-07-12T16:54:40;30.90;18.20
24636;DHT22;12772;49.794;10.024;2022-07-12T16:58:42;30.80;18.10
24636;DHT22;12772;49.794;10.024;2022-07-12T17:02:44;30.80;18.10
24636;DHT22;12772;49.794;10.024;2022-07-12T17:06:46;30.80;18.10
24636;DHT22;12772;49.794;10.024;2022-07-12T17:10:48;30.70;18.10
24636;DHT22;12772;49.794;10.024;2022-07-12T17:14:50;30.70;18.00
24636;DHT22;12772;49.794;10.024;2022-07-12T17:18:52;30.60;18.00
24636;DHT22;12772;49.794;10.024;2022-07-12T17:22:55;30.60;18.00
24636;DHT22;12772;49.794;10.024;2022-07-12T17:26:57;30.60;18.10
24636;DHT22;12772;49.794;10.024;2022-07-12T17:31:00;30.50;17.90
24636;DHT22;12772;49.794;10.024;2022-07-12T17:35:04;30.40;17.90
24636;DHT22;12772;49.794;10.024;2022-07-12T17:39:07;30.30;17.80
24636;DHT22;12772;49.794;10.024;2022-07-12T17:43:09;30.20;18.10
24636;DHT22;12772;49.794;10.024;2022-07-12T17:47:11;30.20;18.70
24636;DHT22;12772;49.794;10.024;2022-07-12T17:51:13;30.10;18.80
24636;DHT22;12772;49.794;10.024;2022-07-12T17:55:15;30.10;17.90
24636;DHT22;12772;49.794;10.024;2022-07-12T17:59:18;30.00;18.40
24636;DHT22;12772;49.794;10.024;2022-07-12T18:03:20;29.90;17.80
24636;DHT22;12772;49.794;10.024;2022-07-12T18:07:22;29.90;17.60
24636;DHT22;12772;49.794;10.024;2022-07-12T18:11:25;29.80;17.50
24636;DHT22;12772;49.794;10.024;2022-07-12T18:15:45;29.70;17.90
24636;DHT22;12772;49.794;10.024;2022-07-12T18:19:47;29.70;18.20
24636;DHT22;12772;49.794;10.024;2022-07-12T18:23:49;29.70;18.20
24636;DHT22;12772;49.794;10.024;2022-07-12T18:27:51;29.60;18.40
24636;DHT22;12772;49.794;10.024;2022-07-12T18:31:55;29.50;18.20
24636;DHT22;12772;49.794;10.024;2022-07-12T18:35:57;29.40;18.40
24636;DHT22;12772;49.794;10.024;2022-07-12T18:39:59;29.40;18.60
24636;DHT22;12772;49.794;10.024;2022-07-12T18:44:01;29.30;18.80
24636;DHT22;12772;49.794;10.024;2022-07-12T18:48:04;29.20;19.00
24636;DHT22;12772;49.794;10.024;2022-07-12T18:52:06;29.10;19.10
24636;DHT22;12772;49.794;10.024;2022-07-12T18:56:09;29.00;19.20
24636;DHT22;12772;49.794;10.024;2022-07-12T19:00:11;28.90;19.40
24636;DHT22;12772;49.794;10.024;2022-07-12T19:04:13;28.80;20.00
24636;DHT22;12772;49.794;10.024;2022-07-12T19:08:15;28.70;19.60
24636;DHT22;12772;49.794;10.024;2022-07-12T19:12:17;28.60;19.90
24636;DHT22;12772;49.794;10.024;2022-07-12T19:16:19;28.50;20.20
24636;DHT22;12772;49.794;10.024;2022-07-12T19:20:21;28.40;20.10
24636;DHT22;12772;49.794;10.024;2022-07-12T19:24:24;28.30;20.60
24636;DHT22;12772;49.794;10.024;2022-07-12T19:28:26;28.10;21.20
24636;DHT22;12772;49.794;10.024;2022-07-12T19:32:28;28.00;21.50
24636;DHT22;12772;49.794;10.024;2022-07-12T19:36:30;27.80;22.70
24636;DHT22;12772;49.794;10.024;2022-07-12T19:40:32;27.60;22.00
24636;DHT22;12772;49.794;10.024;2022-07-12T19:44:34;27.40;21.90
24636;DHT22;12772;49.794;10.024;2022-07-12T19:48:36;27.20;21.80
24636;DHT22;12772;49.794;10.024;2022-07-12T19:52:38;27.00;22.20
24636;DHT22;12772;49.794;10.024;2022-07-12T19:56:41;26.80;22.50
24636;DHT22;12772;49.794;10.024;2022-07-12T20:00:43;26.70;22.50
24636;DHT22;12772;49.794;10.024;2022-07-12T20:04:46;26.60;23.00
24636;DHT22;12772;49.794;10.024;2022-07-12T20:08:48;26.50;22.90
24636;DHT22;12772;49.794;10.024;2022-07-12T20:12:54;26.50;23.00
24636;DHT22;12772;49.794;10.024;2022-07-12T20:16:56;26.30;23.30
24636;DHT22;12772;49.794;10.024;2022-07-12T20:20:59;26.20;23.60
24636;DHT22;12772;49.794;10.024;2022-07-12T20:25:01;26.10;24.10
24636;DHT22;12772;49.794;10.024;2022-07-12T20:29:04;26.00;24.50
24636;DHT22;12772;49.794;10.024;2022-07-12T20:33:06;25.90;24.80
24636;DHT22;12772;49.794;10.024;2022-07-12T20:37:26;25.70;25.20
24636;DHT22;12772;49.794;10.024;2022-07-12T20:41:28;25.60;25.50
24636;DHT22;12772;49.794;10.024;2022-07-12T20:45:30;25.40;25.60
24636;DHT22;12772;49.794;10.024;2022-07-12T20:49:32;25.30;25.80
24636;DHT22;12772;49.794;10.024;2022-07-12T20:53:35;25.10;26.10
24636;DHT22;12772;49.794;10.024;2022-07-12T20:57:37;25.00;26.20
24636;DHT22;12772;49.794;10.024;2022-07-12T21:01:43;24.90;26.10
24636;DHT22;12772;49.794;10.024;2022-07-12T21:05:48;24.80;26.00
24636;DHT22;12772;49.794;10.024;2022-07-12T21:09:51;24.70;25.90
24636;DHT22;12772;49.794;10.024;2022-07-12T21:13:53;24.60;26.30
24636;DHT22;12772;49.794;10.024;2022-07-12T21:17:55;24.50;26.60
24636;DHT22;12772;49.794;10.024;2022-07-12T21:21:57;24.40;27.30
24636;DHT22;12772;49.794;10.024;2022-07-12T21:26:01;24.30;26.90
24636;DHT22;12772;49.794;10.024;2022-07-12T21:30:04;24.20;27.10
24636;DHT22;12772;49.794;10.024;2022-07-12T21:34:09;24.10;27.30
24636;DHT22;12772;49.794;10.024;2022-07-12T21:38:12;24.00;27.50
24636;DHT22;12772;49.794;10.024;2022-07-12T21:42:14;23.90;27.70
24636;DHT22;12772;49.794;10.024;2022-07-12T21:46:17;23.80;27.80
24636;DHT22;12772;49.794;10.024;2022-07-12T21:50:19;23.70;28.00
24636;DHT22;12772;49.794;10.024;2022-07-12T21:54:21;23.60;27.80
24636;DHT22;12772;49.794;10.024;2022-07-12T21:58:23;23.50;27.90
24636;DHT22;12772;49.794;10.024;2022-07-12T22:02:25;23.40;27.90
24636;DHT22;12772;49.794;10.024;2022-07-12T22:06:27;23.20;28.10
24636;DHT22;12772;49.794;10.024;2022-07-12T22:10:29;23.10;28.50
24636;DHT22;12772;49.794;10.024;2022-07-12T22:14:31;23.00;28.90
24636;DHT22;12772;49.794;10.024;2022-07-12T22:18:34;22.90;29.10
24636;DHT22;12772;49.794;10.024;2022-07-12T22:22:36;22.90;29.40
24636;DHT22;12772;49.794;10.024;2022-07-12T22:26:38;22.80;29.30
24636;DHT22;12772;49.794;10.024;2022-07-12T22:30:40;22.80;29.40
24636;DHT22;12772;49.794;10.024;2022-07-12T22:34:42;22.70;29.70
24636;DHT22;12772;49.794;10.024;2022-07-12T22:38:44;22.50;29.80
24636;DHT22;12772;49.794;10.024;2022-07-12T22:42:46;22.40;29.70
24636;DHT22;12772;49.794;10.024;2022-07-12T22:46:48;22.40;29.70
24636;DHT22;12772;49.794;10.024;2022-07-12T22:50:50;22.30;29.60
24636;DHT22;12772;49.794;10.024;2022-07-12T22:55:10;22.30;29.60
24636;DHT22;12772;49.794;10.024;2022-07-12T22:59:13;22.30;29.60
24636;DHT22;12772;49.794;10.024;2022-07-12T23:03:15;22.20;29.50
24636;DHT22;12772;49.794;10.024;2022-07-12T23:07:17;22.20;29.50
24636;DHT22;12772;49.794;10.024;2022-07-12T23:11:19;22.20;29.90
24636;DHT22;12772;49.794;10.024;2022-07-12T23:15:21;22.10;30.00
24636;DHT22;12772;49.794;10.024;2022-07-12T23:19:23;22.10;30.10
24636;DHT22;12772;49.794;10.024;2022-07-12T23:23:25;22.10;30.20
24636;DHT22;12772;49.794;10.024;2022-07-12T23:27:27;22.10;30.30
24636;DHT22;12772;49.794;10.024;2022-07-12T23:31:29;22.00;30.50
24636;DHT22;12772;49.794;10.024;2022-07-12T23:35:31;22.00;30.60
24636;DHT22;12772;49.794;10.024;2022-07-12T23:39:33;22.00;30.50
24636;DHT22;12772;49.794;10.024;2022-07-12T23:43:37;22.00;30.80
24636;DHT22;12772;49.794;10.024;2022-07-12T23:47:39;21.90;30.90
24636;DHT22;12772;49.794;10.024;2022-07-12T23:51:41;21.80;30.90
24636;DHT22;12772;49.794;10.024;2022-07-12T23:55:43;21.70;31.20
24636;DHT22;12772;49.794;10.024;2022-07-12T23:59:46;21.50;31.40
